KOJC/OJC METAR and TAF weather

Enter ICAO airport designator
Station Type Date Time Source
KOJC METAR 2022/01/26 20:53 UTC NOAA

KOJC 262053Z 19006KT 10SM CLR M01/M17 A3028 RMK AO2 SLP269 T10061167 56043


Station Type Date Time Source
KOJC Decoded METAR 2022/01/26 20:53 UTC NOAA

OLATHE JOHNSON CO EXECUTIVE, KS, United States (KOJC) 38-50N 94-44W 326M
Jan 26, 2022 - 03:53 PM EST / 2022.01.26 2053 UTC
Wind: from the S (190 degrees) at 7 MPH (6 KT):0
Visibility: 10 mile(s):0
Sky conditions: clear
Temperature: 30.9 F (-0.6 C)
Windchill: 24 F (-4 C):1
Dew Point: 1.9 F (-16.7 C)
Relative Humidity: 28%
Pressure (altimeter): 30.28 in. Hg (1025 hPa)
Pressure tendency: 0.13 inches (4.3 hPa) lower than three hours ago
ob: KOJC 262053Z 19006KT 10SM CLR M01/M17 A3028 RMK AO2 SLP269 T10061167 56043
cycle: 21

Station Type Date Time Source
KOJC TAF UTC NOAA

Error!

Example: see airport list